Hlavní strana
METAR-TAF:

METAR-TAF

Letiště :

Rygge, Norsko

zeměpisná šířka: 59-23N, zeměpisná délka: 010-47E, výška: 5 m

Aktuální stav počasí

Zpráva byla vytvořena před 38 minutami, v 11:50 UTC
Východoseverovýchodní vítr 8 kt, proměnlivý mezi severoseverovýchodním a východním
Teplota 17°C
Vlhkost vzduchu 52%
Tlak 1000 hPa
Viditelnost 10 km a více
Žádná oblačnost pod 1500 m, nevyskytují se cumulonimby.

METAR: ENRY 041150Z 06008KT 020V100 CAVOK 17/07 Q1000 NOSIG

Čas: 14:28 (12:28 UTC)

Předpověď počasí

Předpověď platná od 04 v 12 UTC do 05 v 12 UTC
Východní vítr 8 kt
Viditelnost 10 km a více
Skoro jasno ve výšce 4000 ft
Polojasno ve výšce 7000 ft
Dočasný
od 04 v 18 UTC do 05 v 12 UTC
Východní vítr 15 kt s nárazy do 25 kt
Změna
od 05 v 09 UTC do 05 v 11 UTC
déšť

TAF: ENRY 0412/0512 10008KT 9999 FEW040 SCT070 TEMPO 0418/0512 10015G25KT BECMG 0509/0511 RA

Stav a předpovědi počasí z více než 4 000 letišť (zprávy METAR a TAF).

Červené a žluté tečky na mapě představují dostupné meteorologické stanice.

Když kurzor umístíte na tečku, zobrazí se název stanice.

Pak kliknutím zobrazíte stav a předpověď počasí.

Chcete-li změnit mapu, kliknutím na zelené tlačítko se znaménkem +mapu přiblížíte, kliknutím na zelené tlačítko se znaménkem – mapu oddálíte a kliknutím na zelené šipky přejdete na sousední mapy.


METAR-TAF: